Time;durP1;ratioP1;P1;durP2;ratioP2;P2;SDS_P1;SDS_P2;PMS_P1;PMS_P2;Temp;Humidity;BMP_temperature;BMP_pressure;BME280_temperature;BME280_humidity;BME280_pressure;Samples;Min_cycle;Max_cycle;Signal;HPM_P1;HPM_P2
2021/08/07 00:01:12;;;;;;;1.15;0.75;;;18.60;99.90;;;;;;4160228;28;20061;-70
2021/08/07 00:03:12;;;;;;;1.40;0.60;;;18.60;99.90;;;;;;4160038;28;20030;-70
2021/08/07 00:05:13;;;;;;;2.50;0.43;;;18.60;99.90;;;;;;4158606;28;20120;-70
2021/08/07 00:07:13;;;;;;;1.52;0.68;;;18.60;99.90;;;;;;4160723;28;20112;-70
2021/08/07 00:09:14;;;;;;;1.25;0.60;;;18.60;99.90;;;;;;4165242;28;20033;-70
2021/08/07 00:11:15;;;;;;;1.35;0.75;;;18.60;99.90;;;;;;4160792;28;20044;-70
2021/08/07 00:13:15;;;;;;;1.42;0.70;;;18.60;99.90;;;;;;4159811;28;20363;-70
2021/08/07 00:15:16;;;;;;;1.10;0.77;;;18.60;99.90;;;;;;4159828;28;20038;-70
2021/08/07 00:17:17;;;;;;;10.73;1.42;;;18.60;99.90;;;;;;4160278;28;20778;-70
2021/08/07 00:19:18;;;;;;;3.05;0.82;;;18.60;99.90;;;;;;4160202;28;20059;-70
2021/08/07 00:21:18;;;;;;;1.88;0.90;;;18.60;99.90;;;;;;4160044;28;20120;-70
2021/08/07 00:23:19;;;;;;;1.67;0.70;;;18.60;99.90;;;;;;4159648;28;20026;-70
2021/08/07 00:25:19;;;;;;;2.17;1.00;;;18.60;99.90;;;;;;4158641;28;20528;-70
2021/08/07 00:27:20;;;;;;;2.90;1.02;;;18.60;99.90;;;;;;4191088;28;20066;-70
2021/08/07 00:29:21;;;;;;;1.60;1.15;;;18.60;99.90;;;;;;4158960;28;20401;-70
2021/08/07 00:31:21;;;;;;;1.58;0.70;;;18.50;99.90;;;;;;4158026;28;20433;-70
2021/08/07 00:33:22;;;;;;;1.98;0.85;;;18.50;99.90;;;;;;4159214;28;20029;-70
2021/08/07 00:35:23;;;;;;;4.93;0.88;;;18.50;99.90;;;;;;4159765;28;20034;-70
2021/08/07 00:37:25;;;;;;;2.10;0.93;;;18.50;99.90;;;;;;4159466;28;20033;-70
2021/08/07 00:39:26;;;;;;;2.08;0.98;;;18.50;99.90;;;;;;4163052;28;20034;-70
2021/08/07 00:41:27;;;;;;;1.83;0.90;;;18.50;99.90;;;;;;4159721;28;20038;-70
2021/08/07 00:43:28;;;;;;;2.55;1.00;;;18.40;99.90;;;;;;4191554;28;20036;-70
2021/08/07 00:45:28;;;;;;;2.40;0.90;;;18.40;99.90;;;;;;4159835;28;20029;-70
2021/08/07 00:47:29;;;;;;;2.47;0.90;;;18.40;99.90;;;;;;4159601;28;20112;-70
2021/08/07 00:49:30;;;;;;;2.50;0.98;;;18.40;99.90;;;;;;4163305;28;20029;-70
2021/08/07 00:51:31;;;;;;;1.52;0.85;;;18.40;99.90;;;;;;4159562;28;20038;-70
2021/08/07 00:53:32;;;;;;;2.53;0.80;;;18.30;99.90;;;;;;4159495;28;22504;-70
2021/08/07 00:55:33;;;;;;;2.95;0.90;;;18.30;99.90;;;;;;4158693;28;20045;-70
2021/08/07 00:57:33;;;;;;;2.60;1.00;;;18.30;99.90;;;;;;4158595;28;20474;-70
2021/08/07 00:59:34;;;;;;;1.63;0.93;;;18.20;99.90;;;;;;4168915;28;20037;-70
2021/08/07 01:01:58;;;;;;;1.48;0.80;;;18.20;99.90;;;;;;4160825;28;20029;-70
2021/08/07 01:03:58;;;;;;;1.10;0.68;;;18.20;99.90;;;;;;4159082;28;20069;-70
2021/08/07 01:06:18;;;;;;;2.63;1.20;;;18.20;99.90;;;;;;4159546;28;20132;-70
2021/08/07 01:08:21;;;;;;;1.10;0.80;;;18.20;99.90;;;;;;4158191;28;20036;-70
2021/08/07 01:10:32;;;;;;;2.13;1.00;;;18.30;99.90;;;;;;4158583;28;20446;-70
2021/08/07 01:12:59;;;;;;;1.20;0.90;;;18.20;99.90;;;;;;4158971;28;20052;-70
2021/08/07 01:15:02;;;;;;;2.22;0.90;;;18.20;99.90;;;;;;4188847;28;20028;-70
2021/08/07 01:17:04;;;;;;;1.50;0.93;;;18.20;99.90;;;;;;4142992;28;20038;-70
2021/08/07 01:19:09;;;;;;;;;;;18.20;99.90;;;;;;4143097;28;20037;-70
2021/08/07 01:21:16;;;;;;;1.92;0.70;;;18.20;99.90;;;;;;4142032;28;20422;-70
2021/08/07 01:23:50;;;;;;;4.03;1.40;;;18.20;99.90;;;;;;4144944;28;20045;-70
2021/08/07 01:25:57;;;;;;;9.95;1.25;;;18.20;99.90;;;;;;4134185;28;20042;-70
2021/08/07 01:27:57;;;;;;;1.98;1.20;;;18.20;99.90;;;;;;4142833;28;20126;-70
2021/08/07 01:30:00;;;;;;;1.45;0.95;;;18.20;99.90;;;;;;4141788;28;20038;-70
2021/08/07 01:32:01;;;;;;;2.50;0.90;;;18.20;99.90;;;;;;4142731;28;20045;-70
2021/08/07 01:34:02;;;;;;;1.58;1.08;;;18.20;99.90;;;;;;4151597;28;20045;-70
2021/08/07 01:36:03;;;;;;;2.47;1.08;;;18.20;99.90;;;;;;4159105;28;20410;-70
2021/08/07 01:38:06;;;;;;;2.45;0.90;;;18.20;99.90;;;;;;4159250;28;20068;-70
2021/08/07 01:40:07;;;;;;;0.88;0.80;;;18.20;99.90;;;;;;4190054;28;20119;-70
2021/08/07 01:42:07;;;;;;;1.42;0.90;;;18.20;99.90;;;;;;4158693;28;20501;-70
2021/08/07 01:44:08;;;;;;;2.13;1.20;;;18.20;99.90;;;;;;4158655;28;20047;-70
2021/08/07 01:46:11;;;;;;;1.17;0.85;;;18.20;99.90;;;;;;4158572;28;20049;-70
2021/08/07 01:48:32;;;;;;;1.55;0.95;;;18.10;99.90;;;;;;4159285;28;20099;-70
2021/08/07 01:50:45;;;;;;;1.13;0.70;;;18.10;99.90;;;;;;4148745;28;20117;-70
2021/08/07 01:52:48;;;;;;;2.13;1.05;;;18.10;99.90;;;;;;4148049;28;20331;-70
2021/08/07 01:54:56;;;;;;;1.75;1.10;;;18.10;99.90;;;;;;4165427;28;20413;-70
2021/08/07 01:57:00;;;;;;;3.67;1.27;;;18.10;99.90;;;;;;4158933;28;20119;-70
2021/08/07 01:59:06;;;;;;;4.47;1.40;;;18.10;99.90;;;;;;4158639;28;20144;-70
2021/08/07 02:01:08;;;;;;;1.58;1.13;;;18.10;99.90;;;;;;4155563;28;20042;-70
2021/08/07 02:03:09;;;;;;;1.70;1.13;;;18.10;99.90;;;;;;4156858;28;20529;-70
2021/08/07 02:05:11;;;;;;;2.45;1.00;;;18.10;99.90;;;;;;4158840;28;20494;-70
2021/08/07 02:07:12;;;;;;;2.30;1.20;;;18.10;99.90;;;;;;4158431;28;20083;-70
2021/08/07 02:09:17;;;;;;;3.25;1.05;;;18.10;99.90;;;;;;4158139;28;20034;-70
2021/08/07 02:11:18;;;;;;;1.13;1.02;;;18.10;99.90;;;;;;4148446;28;20042;-70
2021/08/07 02:13:21;;;;;;;1.42;1.13;;;18.10;99.90;;;;;;4139935;28;20429;-70
2021/08/07 02:15:22;;;;;;;;;;;18.20;99.90;;;;;;4140928;28;20119;-73
2021/08/07 02:17:23;;;;;;;4.38;1.77;;;18.20;99.90;;;;;;4142397;28;19913;-70
2021/08/07 02:19:24;;;;;;;4.05;1.40;;;18.20;99.90;;;;;;4141850;28;20568;-70
2021/08/07 02:21:25;;;;;;;3.88;1.42;;;18.10;99.90;;;;;;4141649;28;20034;-70
2021/08/07 02:23:26;;;;;;;9.13;2.03;;;18.20;99.90;;;;;;4142108;28;20508;-70
2021/08/07 02:25:27;;;;;;;6.72;1.73;;;18.20;99.90;;;;;;4150026;28;20060;-70
2021/08/07 02:27:28;;;;;;;5.07;1.83;;;18.20;99.90;;;;;;4143910;28;20026;-70
2021/08/07 02:29:30;;;;;;;8.18;2.38;;;18.20;99.90;;;;;;4148527;28;20045;-69
2021/08/07 02:31:32;;;;;;;5.45;2.33;;;18.20;99.90;;;;;;4146739;28;20570;-70
2021/08/07 02:33:35;;;;;;;5.88;2.10;;;18.10;99.90;;;;;;4164047;28;20033;-70
2021/08/07 02:35:36;;;;;;;6.57;1.98;;;18.20;99.90;;;;;;4142584;28;20034;-70
2021/08/07 02:37:38;;;;;;;4.57;1.88;;;18.10;99.90;;;;;;4139700;28;20140;-70
2021/08/07 02:39:40;;;;;;;6.30;1.83;;;18.10;99.90;;;;;;4141843;28;20034;-70
2021/08/07 02:41:41;;;;;;;3.30;1.40;;;18.00;99.90;;;;;;4140295;28;20214;-70
2021/08/07 02:43:42;;;;;;;4.85;1.55;;;18.00;99.90;;;;;;4141560;28;20283;-70
2021/08/07 02:45:44;;;;;;;3.28;1.30;;;18.00;99.90;;;;;;4148420;28;20053;-70
2021/08/07 02:47:46;;;;;;;3.90;1.38;;;17.90;99.90;;;;;;4140999;28;20406;-70
2021/08/07 02:49:47;;;;;;;2.95;1.20;;;17.90;99.90;;;;;;4141358;28;20033;-70
2021/08/07 02:51:49;;;;;;;2.70;1.70;;;17.80;99.90;;;;;;4141588;28;20068;-70
2021/08/07 02:53:50;;;;;;;;;;;17.70;99.90;;;;;;4141807;28;20347;-70
2021/08/07 02:55:51;;;;;;;2.97;1.48;;;17.70;99.90;;;;;;4141134;28;19956;-70
2021/08/07 02:57:53;;;;;;;2.08;1.23;;;17.70;99.90;;;;;;4141770;28;20061;-70
2021/08/07 02:59:53;;;;;;;1.90;1.30;;;17.70;99.90;;;;;;4141046;28;20387;-70
2021/08/07 03:01:54;;;;;;;2.38;1.42;;;17.60;99.90;;;;;;4141737;28;20406;-70
2021/08/07 03:03:54;;;;;;;4.20;1.35;;;17.60;99.90;;;;;;4141785;28;20042;-70
2021/08/07 03:05:55;;;;;;;3.13;1.33;;;17.50;99.90;;;;;;4139383;28;20046;-70
2021/08/07 03:07:56;;;;;;;4.20;1.50;;;17.50;99.90;;;;;;4140041;28;20128;-70
2021/08/07 03:09:57;;;;;;;1.67;1.08;;;17.40;99.90;;;;;;4140125;28;20042;-69
2021/08/07 03:11:57;;;;;;;2.10;1.45;;;17.40;99.90;;;;;;4140481;28;20042;-69
2021/08/07 03:13:58;;;;;;;2.78;1.30;;;17.40;99.90;;;;;;4141408;28;20037;-69
2021/08/07 03:15:59;;;;;;;4.22;1.50;;;17.40;99.90;;;;;;4141602;28;20455;-69
2021/08/07 03:17:59;;;;;;;2.13;1.20;;;17.30;99.90;;;;;;4139547;28;20501;-69
2021/08/07 03:20:00;;;;;;;3.17;1.02;;;17.30;99.90;;;;;;4141432;28;20048;-70
2021/08/07 03:22:01;;;;;;;2.45;1.10;;;17.30;99.90;;;;;;4141213;28;20057;-69
2021/08/07 03:24:01;;;;;;;1.13;0.90;;;17.40;99.90;;;;;;4150160;28;20187;-69
2021/08/07 03:26:02;;;;;;;1.70;1.02;;;17.40;99.90;;;;;;4156203;28;20551;-70
2021/08/07 03:28:03;;;;;;;2.47;1.30;;;17.50;99.90;;;;;;4150534;28;20034;-69
2021/08/07 03:30:05;;;;;;;2.45;1.13;;;17.50;99.90;;;;;;4139443;28;20245;-69
2021/08/07 03:32:05;;;;;;;3.15;1.10;;;17.50;99.90;;;;;;4155010;28;20172;-69
2021/08/07 03:34:06;;;;;;;2.40;1.10;;;17.50;99.90;;;;;;4141260;28;20042;-70
2021/08/07 03:36:07;;;;;;;2.05;1.02;;;17.60;99.90;;;;;;4141005;28;20045;-69
2021/08/07 03:38:07;;;;;;;6.78;1.30;;;17.70;99.90;;;;;;4141408;28;20041;-69
2021/08/07 03:40:09;;;;;;;2.67;0.85;;;17.70;99.90;;;;;;4141159;28;20034;-69
2021/08/07 03:42:09;;;;;;;1.73;1.20;;;17.70;99.90;;;;;;4139543;28;20042;-69
2021/08/07 03:44:10;;;;;;;1.00;1.00;;;17.70;99.90;;;;;;4139217;28;20584;-69
2021/08/07 03:46:11;;;;;;;2.03;0.75;;;17.80;99.90;;;;;;4140818;28;20046;-70
2021/08/07 03:48:11;;;;;;;1.50;0.90;;;17.80;99.90;;;;;;4140967;28;20042;-69
2021/08/07 03:50:12;;;;;;;4.40;1.00;;;17.90;99.90;;;;;;4131090;28;20037;-69
2021/08/07 03:52:13;;;;;;;1.95;1.13;;;17.90;99.90;;;;;;4139113;28;20437;-69
2021/08/07 03:54:14;;;;;;;1.73;1.10;;;17.80;99.90;;;;;;4139511;28;20030;-69
2021/08/07 03:56:14;;;;;;;2.45;1.13;;;17.80;99.90;;;;;;4130658;28;20038;-69
2021/08/07 03:58:15;;;;;;;1.42;0.80;;;17.80;99.90;;;;;;4139787;28;20207;-70
2021/08/07 04:00:17;;;;;;;3.65;0.90;;;17.80;99.90;;;;;;4138767;28;20034;-69
2021/08/07 04:02:17;;;;;;;1.00;0.90;;;17.80;99.90;;;;;;4140030;28;20056;-69
2021/08/07 04:04:19;;;;;;;1.17;0.88;;;17.80;99.90;;;;;;4141279;28;20486;-69
2021/08/07 04:06:19;;;;;;;2.50;1.10;;;17.80;99.90;;;;;;4140944;28;20065;-69
2021/08/07 04:08:20;;;;;;;1.27;0.90;;;17.80;99.90;;;;;;4139289;28;20037;-69
2021/08/07 04:10:20;;;;;;;1.20;0.88;;;17.80;99.90;;;;;;4139567;28;20192;-69
2021/08/07 04:12:21;;;;;;;3.83;0.80;;;17.80;99.90;;;;;;4140391;28;20042;-69
2021/08/07 04:14:21;;;;;;;2.10;1.15;;;17.80;99.90;;;;;;4139202;28;20042;-69
2021/08/07 04:16:22;;;;;;;1.27;0.82;;;17.80;99.90;;;;;;4140732;28;20038;-69
2021/08/07 04:18:23;;;;;;;2.15;0.93;;;17.80;99.90;;;;;;4140849;28;20394;-69
2021/08/07 04:20:24;;;;;;;1.52;0.82;;;17.80;99.90;;;;;;4140352;28;20063;-69
2021/08/07 04:22:25;;;;;;;2.17;0.90;;;17.90;99.90;;;;;;4139322;28;20033;-69
2021/08/07 04:24:25;;;;;;;2.22;1.08;;;17.90;99.90;;;;;;4141034;28;20435;-69
2021/08/07 04:26:26;;;;;;;2.20;1.23;;;17.90;99.90;;;;;;4143555;28;20050;-69
2021/08/07 04:28:27;;;;;;;4.60;1.30;;;17.90;99.90;;;;;;4143557;28;20471;-69
2021/08/07 04:30:27;;;;;;;3.25;1.40;;;17.90;99.90;;;;;;4143857;28;20485;-69
2021/08/07 04:32:28;;;;;;;6.05;1.92;;;17.90;99.90;;;;;;4143085;28;20486;-69
2021/08/07 04:34:28;;;;;;;4.53;1.40;;;17.90;99.90;;;;;;4144177;28;20038;-69
2021/08/07 04:36:29;;;;;;;4.35;1.48;;;17.80;99.90;;;;;;4143402;28;20406;-69
2021/08/07 04:38:30;;;;;;;5.57;1.70;;;17.90;99.90;;;;;;4143496;28;20430;-69
2021/08/07 04:40:32;;;;;;;3.80;1.60;;;17.80;99.90;;;;;;4144033;28;20080;-69
2021/08/07 04:42:34;;;;;;;1.98;1.35;;;17.80;99.90;;;;;;4142899;28;21387;-69
2021/08/07 04:44:35;;;;;;;5.88;1.63;;;17.90;99.90;;;;;;4143943;28;20030;-69
2021/08/07 04:46:35;;;;;;;2.85;1.27;;;17.90;99.90;;;;;;4142371;28;20421;-69
2021/08/07 04:48:36;;;;;;;2.97;1.67;;;17.90;99.90;;;;;;4143280;28;20026;-69
2021/08/07 04:50:36;;;;;;;3.85;1.45;;;17.90;99.90;;;;;;4144449;28;20053;-69
2021/08/07 04:52:37;;;;;;;1.27;1.00;;;17.90;99.90;;;;;;4144004;28;20631;-70
2021/08/07 04:54:38;;;;;;;2.53;1.33;;;17.90;99.90;;;;;;4144043;28;20490;-69
2021/08/07 04:56:38;;;;;;;2.17;1.00;;;17.90;99.90;;;;;;4144167;28;20052;-69
2021/08/07 04:58:39;;;;;;;3.15;1.20;;;18.00;99.90;;;;;;4143895;28;20060;-69
2021/08/07 05:00:40;;;;;;;1.98;1.10;;;18.00;99.90;;;;;;4143422;28;20133;-69
2021/08/07 05:02:40;;;;;;;3.83;1.35;;;18.00;99.90;;;;;;4143510;28;20048;-69
2021/08/07 05:04:41;;;;;;;3.97;1.40;;;18.10;99.90;;;;;;4143411;28;20439;-69
2021/08/07 05:06:44;;;;;;;3.63;1.30;;;18.00;99.90;;;;;;4143460;28;20042;-69
2021/08/07 05:08:44;;;;;;;2.75;1.38;;;18.10;99.90;;;;;;4141928;28;20141;-69
2021/08/07 05:10:45;;;;;;;2.33;1.33;;;18.10;99.90;;;;;;4140248;28;20399;-70
2021/08/07 05:12:45;;;;;;;3.30;1.23;;;18.10;99.90;;;;;;4142107;28;20037;-69
2021/08/07 05:14:46;;;;;;;3.00;1.40;;;18.10;99.90;;;;;;4142735;28;20042;-69
2021/08/07 05:16:47;;;;;;;2.35;1.50;;;18.10;99.90;;;;;;4143235;28;20041;-69
2021/08/07 05:18:47;;;;;;;1.67;1.10;;;18.10;99.90;;;;;;4142941;28;20359;-69
2021/08/07 05:20:48;;;;;;;3.53;1.10;;;18.10;99.90;;;;;;4141767;28;20509;-69
2021/08/07 05:22:48;;;;;;;1.10;1.00;;;18.10;99.90;;;;;;4130939;28;22770;-69
2021/08/07 05:24:50;;;;;;;3.00;1.17;;;18.10;99.90;;;;;;4149346;28;20032;-69
2021/08/07 05:26:50;;;;;;;1.45;1.20;;;18.10;99.90;;;;;;4146835;28;20125;-69
2021/08/07 05:28:51;;;;;;;1.15;0.90;;;18.20;99.90;;;;;;4158492;28;20041;-69
2021/08/07 05:30:51;;;;;;;2.75;1.10;;;18.10;99.90;;;;;;4149381;28;20037;-69
2021/08/07 05:32:52;;;;;;;2.60;1.42;;;18.10;99.90;;;;;;4149320;28;20064;-69
2021/08/07 05:34:53;;;;;;;3.22;1.58;;;18.10;99.90;;;;;;4148180;28;20038;-69
2021/08/07 05:36:53;;;;;;;4.55;1.05;;;18.20;99.90;;;;;;4147816;28;20049;-69
2021/08/07 05:38:54;;;;;;;1.35;0.80;;;18.20;99.90;;;;;;4144626;28;20034;-70
2021/08/07 05:40:54;;;;;;;1.17;1.02;;;18.10;99.90;;;;;;4145634;28;20363;-70
2021/08/07 05:42:56;;;;;;;2.97;1.00;;;18.20;99.90;;;;;;4146095;28;20037;-70
2021/08/07 05:44:56;;;;;;;2.80;1.17;;;18.10;99.90;;;;;;4141735;28;20034;-70
2021/08/07 05:46:57;;;;;;;3.63;1.15;;;18.10;99.90;;;;;;4142840;28;20128;-70
2021/08/07 05:48:57;;;;;;;3.83;1.58;;;18.20;99.90;;;;;;4157942;28;20033;-70
2021/08/07 05:50:59;;;;;;;1.88;1.35;;;18.10;99.90;;;;;;4142396;28;20034;-70
2021/08/07 05:52:59;;;;;;;1.52;1.00;;;18.20;99.90;;;;;;4141135;28;20092;-70
2021/08/07 05:55:00;;;;;;;1.48;1.10;;;18.10;99.90;;;;;;4141294;28;20030;-70
2021/08/07 05:57:00;;;;;;;3.60;1.00;;;18.10;99.90;;;;;;4141998;28;20034;-70
2021/08/07 05:59:02;;;;;;;3.88;1.45;;;18.10;99.90;;;;;;4142795;28;20120;-70
2021/08/07 06:01:03;;;;;;;1.48;0.95;;;18.20;99.90;;;;;;4143258;28;20529;-70
2021/08/07 06:03:04;;;;;;;1.40;1.00;;;18.10;99.90;;;;;;4142645;28;20331;-70
2021/08/07 06:05:05;;;;;;;2.38;1.08;;;18.10;99.90;;;;;;4142442;28;20513;-70
2021/08/07 06:07:05;;;;;;;2.65;1.50;;;18.10;99.90;;;;;;4142852;28;20046;-70
2021/08/07 06:09:06;;;;;;;7.75;1.40;;;18.10;99.90;;;;;;4142032;28;20080;-70
2021/08/07 06:11:06;;;;;;;2.05;1.50;;;18.10;99.90;;;;;;4142655;28;20121;-70
2021/08/07 06:13:07;;;;;;;4.25;1.67;;;18.10;99.90;;;;;;4143230;28;20045;-70
2021/08/07 06:15:08;;;;;;;3.88;1.42;;;18.00;99.90;;;;;;4142681;28;20504;-70
2021/08/07 06:17:09;;;;;;;3.85;1.40;;;18.00;99.90;;;;;;4142739;28;22148;-70
2021/08/07 06:19:10;;;;;;;1.73;1.15;;;18.00;99.90;;;;;;4142684;28;20042;-70
2021/08/07 06:21:10;;;;;;;2.15;1.27;;;18.00;99.90;;;;;;4140625;28;20411;-70
2021/08/07 06:23:11;;;;;;;1.60;1.13;;;18.00;99.90;;;;;;4142402;28;20040;-70
2021/08/07 06:25:12;;;;;;;1.85;1.13;;;18.00;99.90;;;;;;4142682;28;20053;-70
2021/08/07 06:27:12;;;;;;;2.67;1.48;;;18.00;99.90;;;;;;4141100;28;20045;-70
2021/08/07 06:29:13;;;;;;;1.55;1.35;;;18.10;99.90;;;;;;4142334;28;20049;-70
2021/08/07 06:31:13;;;;;;;6.68;1.58;;;18.10;99.90;;;;;;4142711;28;20109;-70
2021/08/07 06:33:14;;;;;;;3.20;1.20;;;18.10;99.90;;;;;;4142050;28;20036;-70
2021/08/07 06:35:15;;;;;;;2.22;1.17;;;18.10;99.90;;;;;;4141291;28;20037;-70
2021/08/07 06:37:16;;;;;;;2.92;1.50;;;18.10;99.90;;;;;;4142131;28;20068;-70
2021/08/07 06:39:16;;;;;;;6.05;1.73;;;18.20;99.90;;;;;;4141846;28;20403;-70
2021/08/07 06:41:17;;;;;;;2.58;1.13;;;18.20;99.90;;;;;;4141543;28;20528;-70
2021/08/07 06:43:19;;;;;;;2.72;1.52;;;18.20;99.90;;;;;;4141391;28;20037;-70
2021/08/07 06:45:20;;;;;;;3.10;1.52;;;18.20;99.90;;;;;;4140603;28;20141;-70
2021/08/07 06:47:20;;;;;;;2.92;1.42;;;18.20;99.90;;;;;;4142068;28;20482;-70
2021/08/07 06:49:21;;;;;;;3.17;1.50;;;18.20;99.90;;;;;;4142281;28;20440;-70
2021/08/07 06:51:22;;;;;;;2.55;1.40;;;18.30;99.90;;;;;;4141906;28;20361;-70
2021/08/07 06:53:22;;;;;;;3.10;1.23;;;18.30;99.90;;;;;;4142459;28;20038;-70
2021/08/07 06:55:23;;;;;;;2.03;1.45;;;18.30;99.90;;;;;;4141832;28;20212;-70
2021/08/07 06:57:25;;;;;;;4.43;1.17;;;18.40;99.90;;;;;;4156805;28;20041;-70
2021/08/07 06:59:25;;;;;;;2.70;1.30;;;18.40;99.90;;;;;;4142402;28;20041;-70
2021/08/07 07:01:26;;;;;;;2.95;1.35;;;18.30;99.90;;;;;;4139547;28;20038;-70
2021/08/07 07:03:26;;;;;;;3.47;1.67;;;18.40;99.90;;;;;;4140124;28;20475;-70
2021/08/07 07:05:31;;;;;;;1.88;1.17;;;18.40;99.90;;;;;;4141270;28;20064;-70
2021/08/07 07:07:33;;;;;;;2.60;1.52;;;18.50;99.90;;;;;;4141949;28;20050;-70
2021/08/07 07:09:33;;;;;;;7.70;1.95;;;18.40;99.90;;;;;;4140609;28;20482;-70
2021/08/07 07:11:37;;;;;;;5.50;1.40;;;18.40;99.90;;;;;;4139139;28;20026;-70
2021/08/07 07:13:37;;;;;;;2.72;1.55;;;18.50;99.90;;;;;;4140428;28;20046;-70
2021/08/07 07:15:38;;;;;;;3.53;1.55;;;18.50;99.90;;;;;;4141608;28;20520;-70
2021/08/07 07:17:39;;;;;;;3.53;1.38;;;18.50;99.90;;;;;;4141930;28;20570;-70
2021/08/07 07:19:40;;;;;;;3.97;1.67;;;18.40;99.90;;;;;;4141944;28;20034;-70
2021/08/07 07:21:41;;;;;;;5.93;1.50;;;18.50;99.90;;;;;;4141103;28;20045;-70
2021/08/07 07:23:42;;;;;;;3.10;1.48;;;18.50;99.90;;;;;;4134503;28;20548;-70
2021/08/07 07:25:43;;;;;;;3.72;1.73;;;18.50;99.90;;;;;;4141193;28;20038;-70
2021/08/07 07:27:44;;;;;;;3.13;1.27;;;18.50;99.90;;;;;;4138994;28;20041;-70
2021/08/07 07:29:45;;;;;;;10.35;2.08;;;18.50;99.90;;;;;;4141354;28;20255;-71
2021/08/07 07:31:46;;;;;;;3.47;1.25;;;18.60;99.90;;;;;;4172544;28;20551;-70
2021/08/07 07:33:46;;;;;;;2.75;1.52;;;18.60;99.90;;;;;;4141550;28;20060;-71
2021/08/07 07:35:47;;;;;;;4.07;1.48;;;18.60;99.90;;;;;;4141249;28;20072;-70
2021/08/07 07:37:47;;;;;;;2.22;1.20;;;18.60;99.90;;;;;;4141824;28;20538;-70
2021/08/07 07:39:48;;;;;;;3.40;1.73;;;18.70;99.90;;;;;;4141631;28;20034;-70
2021/08/07 07:41:49;;;;;;;3.28;1.50;;;18.80;99.90;;;;;;4141091;28;20037;-71
2021/08/07 07:43:49;;;;;;;5.38;1.58;;;18.80;99.90;;;;;;4141565;28;20046;-71
2021/08/07 07:45:50;;;;;;;6.22;1.58;;;18.80;99.90;;;;;;4141163;28;20041;-70
2021/08/07 07:47:50;;;;;;;4.05;1.67;;;18.80;99.90;;;;;;4141028;28;20453;-70
2021/08/07 07:49:51;;;;;;;6.38;1.63;;;18.80;99.90;;;;;;4141180;28;20399;-71
2021/08/07 07:51:52;;;;;;;3.92;1.50;;;18.90;99.90;;;;;;4141236;28;20034;-71
2021/08/07 07:53:52;;;;;;;4.75;1.50;;;18.90;99.90;;;;;;4140612;28;20421;-71
2021/08/07 07:55:53;;;;;;;3.70;1.70;;;18.90;99.90;;;;;;4141286;28;20042;-71
2021/08/07 07:57:57;;;;;;;5.65;1.58;;;18.90;99.90;;;;;;4140035;28;20462;-71
2021/08/07 07:59:58;;;;;;;4.20;1.70;;;19.00;99.90;;;;;;4144179;28;20390;-71
2021/08/07 08:02:02;;;;;;;5.90;1.58;;;19.00;99.90;;;;;;4143873;28;20029;-71
2021/08/07 08:04:02;;;;;;;6.72;1.70;;;19.10;99.90;;;;;;4142706;28;20042;-71
2021/08/07 08:06:05;;;;;;;4.03;1.83;;;19.10;99.90;;;;;;4144680;28;20046;-71
2021/08/07 08:08:06;;;;;;;5.68;1.40;;;19.10;99.90;;;;;;4144923;28;20113;-71
2021/08/07 08:10:07;;;;;;;5.47;1.60;;;19.10;99.90;;;;;;4144362;28;20041;-71
2021/08/07 08:12:07;;;;;;;2.42;1.15;;;19.10;99.90;;;;;;4144600;28;20046;-71
2021/08/07 08:14:08;;;;;;;5.70;1.30;;;19.20;99.90;;;;;;4144571;28;20107;-71
2021/08/07 08:16:09;;;;;;;4.25;1.83;;;19.20;99.90;;;;;;4141446;28;20029;-71
2021/08/07 08:18:11;;;;;;;3.95;1.35;;;19.30;99.90;;;;;;4144126;28;20125;-71
2021/08/07 08:20:13;;;;;;;3.20;1.20;;;19.30;99.90;;;;;;4140881;28;20104;-71
2021/08/07 08:22:13;;;;;;;3.57;1.50;;;19.30;99.90;;;;;;4143989;28;20042;-71
2021/08/07 08:24:14;;;;;;;5.53;1.48;;;19.30;99.90;;;;;;4142700;28;20056;-71
2021/08/07 08:26:15;;;;;;;3.67;1.63;;;19.40;99.90;;;;;;4144270;28;20060;-71
2021/08/07 08:28:16;;;;;;;9.63;1.50;;;19.50;99.90;;;;;;4142719;28;20038;-71
2021/08/07 08:30:17;;;;;;;3.50;1.55;;;19.50;99.90;;;;;;4142847;28;20037;-71
2021/08/07 08:32:18;;;;;;;4.63;1.60;;;19.60;99.90;;;;;;4143563;28;20398;-71
2021/08/07 08:34:19;;;;;;;3.50;1.50;;;19.70;99.90;;;;;;4143472;28;20041;-71
2021/08/07 08:36:20;;;;;;;2.22;1.27;;;19.60;99.90;;;;;;4143914;28;20030;-71
2021/08/07 08:38:20;;;;;;;5.18;1.10;;;19.70;99.90;;;;;;4144124;28;20628;-71
2021/08/07 08:40:21;;;;;;;4.68;1.42;;;19.80;99.90;;;;;;4143440;28;20509;-71
2021/08/07 08:42:22;;;;;;;2.15;0.85;;;19.80;99.90;;;;;;4141529;28;20509;-71
2021/08/07 08:44:22;;;;;;;7.30;1.45;;;19.80;99.90;;;;;;4143471;28;20065;-71
2021/08/07 08:46:24;;;;;;;3.17;1.35;;;19.90;99.90;;;;;;4142611;28;20030;-71
2021/08/07 08:48:25;;;;;;;3.47;1.20;;;19.90;99.90;;;;;;4144281;28;20056;-71
2021/08/07 08:50:27;;;;;;;3.75;1.20;;;20.00;99.90;;;;;;4143963;28;20026;-71
2021/08/07 08:52:29;;;;;;;3.60;1.15;;;20.10;99.90;;;;;;4143410;28;20030;-71
2021/08/07 08:54:30;;;;;;;5.40;1.63;;;20.10;99.90;;;;;;4142128;28;20063;-71
2021/08/07 08:56:34;;;;;;;4.07;1.35;;;20.10;99.90;;;;;;4143925;28;20425;-71
2021/08/07 08:58:38;;;;;;;6.22;1.55;;;20.10;99.90;;;;;;4141858;28;20046;-71
2021/08/07 09:00:39;;;;;;;4.85;1.73;;;20.10;99.90;;;;;;4143443;28;20099;-71
2021/08/07 09:02:40;;;;;;;1.65;1.00;;;20.10;99.90;;;;;;4141104;28;20430;-71
2021/08/07 09:04:41;;;;;;;4.20;1.17;;;20.10;99.90;;;;;;4143603;28;20037;-71
2021/08/07 09:06:42;;;;;;;7.45;1.20;;;20.20;99.90;;;;;;4145346;28;20057;-72
2021/08/07 09:09:08;;;;;;;3.10;1.25;;;20.20;99.90;;;;;;4144333;28;20427;-72
2021/08/07 09:11:27;;;;;;;2.03;1.02;;;20.10;99.90;;;;;;4139432;28;20076;-71
2021/08/07 09:13:28;;;;;;;3.40;1.50;;;20.20;99.90;;;;;;4141737;28;20416;-71
2021/08/07 09:15:33;;;;;;;3.05;1.10;;;20.20;99.90;;;;;;4142701;28;20433;-71
2021/08/07 09:17:34;;;;;;;4.90;1.67;;;20.20;99.90;;;;;;4143458;28;20418;-71
2021/08/07 09:19:40;;;;;;;2.53;1.08;;;20.20;99.90;;;;;;4141944;28;20309;-72
2021/08/07 09:21:41;;;;;;;3.40;1.00;;;20.30;99.90;;;;;;4143029;28;20104;-71
2021/08/07 09:23:42;;;;;;;6.45;1.75;;;20.20;99.90;;;;;;4143016;28;20041;-71
2021/08/07 09:25:45;;;;;;;5.22;1.38;;;20.30;99.90;;;;;;4143246;28;20041;-72
2021/08/07 09:27:51;;;;;;;6.90;1.25;;;20.30;99.90;;;;;;4143093;28;20026;-72
2021/08/07 09:29:51;;;;;;;5.53;1.05;;;20.30;99.90;;;;;;4143043;28;20026;-72
2021/08/07 09:31:58;;;;;;;2.22;0.98;;;20.40;99.90;;;;;;4142893;28;20556;-72
2021/08/07 09:34:16;;;;;;;2.22;0.75;;;20.40;99.90;;;;;;4143133;28;20037;-71
2021/08/07 09:36:43;;;;;;;7.53;1.27;;;20.40;99.90;;;;;;4143056;28;20040;-72
2021/08/07 09:38:45;;;;;;;5.28;1.40;;;20.40;99.90;;;;;;4135356;28;20026;-71
2021/08/07 09:40:47;;;;;;;;;;;20.40;99.90;;;;;;4142538;28;20068;-72
2021/08/07 09:42:51;;;;;;;4.40;1.33;;;20.40;99.90;;;;;;4140626;28;19921;-72
2021/08/07 09:45:06;;;;;;;6.65;1.58;;;20.40;99.90;;;;;;4141783;28;20129;-71
2021/08/07 09:47:12;;;;;;;4.10;1.48;;;20.40;99.90;;;;;;4141260;28;20533;-72
2021/08/07 09:49:12;;;;;;;4.03;1.55;;;20.40;99.90;;;;;;4142250;28;20446;-72
2021/08/07 09:51:35;;;;;;;5.88;1.48;;;20.50;99.90;;;;;;4145646;28;20041;-71
2021/08/07 09:53:36;;;;;;;3.83;1.38;;;20.50;99.90;;;;;;4141227;28;20522;-71
2021/08/07 09:55:36;;;;;;;2.78;1.15;;;20.60;99.90;;;;;;4142743;28;20049;-72
2021/08/07 09:57:37;;;;;;;5.93;1.27;;;20.60;99.90;;;;;;4143012;28;20372;-72
2021/08/07 09:59:47;;;;;;;7.28;1.25;;;20.70;99.90;;;;;;4140981;28;20042;-72
2021/08/07 10:01:48;;;;;;;5.75;1.80;;;20.80;99.90;;;;;;4144847;28;20516;-72
2021/08/07 10:04:06;;;;;;;5.75;1.67;;;20.80;99.90;;;;;;4140887;28;20049;-72
2021/08/07 10:06:22;;;;;;;3.33;1.15;;;20.90;99.90;;;;;;4144285;28;20482;-72
2021/08/07 10:08:23;;;;;;;4.13;1.52;;;21.00;99.90;;;;;;4141833;28;20101;-72
2021/08/07 10:10:23;;;;;;;3.83;1.30;;;21.10;99.90;;;;;;4140561;28;20498;-72
2021/08/07 10:12:24;;;;;;;7.10;1.30;;;21.20;99.90;;;;;;4141777;28;20038;-72
2021/08/07 10:14:25;;;;;;;6.90;1.40;;;21.30;99.90;;;;;;4140264;28;20026;-72
2021/08/07 10:16:27;;;;;;;6.03;1.27;;;21.40;99.90;;;;;;4142788;28;20065;-72
2021/08/07 10:18:27;;;;;;;3.50;1.30;;;21.40;99.90;;;;;;4171398;28;20148;-72
2021/08/07 10:20:28;;;;;;;2.70;0.95;;;21.50;99.90;;;;;;4138560;28;20026;-72
2021/08/07 10:22:29;;;;;;;4.88;1.35;;;21.60;99.90;;;;;;4139507;28;20032;-72
2021/08/07 10:24:30;;;;;;;6.35;1.60;;;21.70;99.90;;;;;;4141464;28;20030;-72
2021/08/07 10:26:33;;;;;;;2.15;0.90;;;21.70;99.90;;;;;;4142911;28;20418;-72
2021/08/07 10:28:37;;;;;;;3.65;1.25;;;21.70;99.90;;;;;;4140455;28;20041;-72
2021/08/07 10:30:42;;;;;;;6.55;1.50;;;21.70;99.90;;;;;;4142647;28;20084;-72
2021/08/07 10:32:44;;;;;;;3.38;1.08;;;21.60;99.90;;;;;;4140121;28;20044;-72
2021/08/07 10:34:50;;;;;;;5.65;1.45;;;21.60;99.90;;;;;;4140252;28;20045;-72
2021/08/07 10:36:51;;;;;;;3.72;1.40;;;21.60;99.90;;;;;;4140320;28;20037;-72